Doris Moran — WRU2125 — position and weather

sailwx.info

Track history (hours):
 
Tides and Currents Weather Stations Pressure Air Temp Water Temp Dewpoint Dewpoint Depression Visibility Wind Speed Wind Dir Waves Ship Positions

Doris Moran

Owner: MORAN TOWING CORPORATION, New Canaan, CT. More information available from US FCC via Universal Licensing System and Coast Guard Vessel Documentation Center.

Last reported at 2014-Dec-15 23:33 UTC. Time now 2014-Dec-19 18:15 UTC.
Position N 40°46' W 074°01'.

Length 36 m; draft 5.3 m.

Type: Other ship. MMSI: 366939790.

Date/timePositionNaut miles runAvg speedWind from/ knotsBaromVisibWave heightAir tempDewpointWater temp
2014-Dec-15 23:33N 40°46' W 074°01'9 8.9
2014-Dec-15 22:33N 40°38' W 074°08'0 0.0
2014-Dec-15 21:33N 40°38' W 074°08'3 3.4
2014-Dec-15 20:33N 40°39' W 074°03'1 0.9
2014-Dec-15 19:33N 40°40' W 074°03'0 0.1
2014-Dec-15 18:33N 40°40' W 074°02'0 0.1
2014-Dec-15 17:33N 40°40' W 074°03'0 0.0
2014-Dec-15 16:33N 40°40' W 074°03'0 0.0
2014-Dec-15 15:33N 40°40' W 074°03'0 0.0
2014-Dec-15 14:33N 40°40' W 074°03'5 5.1
2014-Dec-15 13:32N 40°41' W 074°09'1 1.1
2014-Dec-15 12:33N 40°40' W 074°08'2 2.1
2014-Dec-15 11:34N 40°39' W 074°07'1 0.6
2014-Dec-15 10:33N 40°38' W 074°08'0 0.0
2014-Dec-15 09:33N 40°38' W 074°08'0 0.0
2014-Dec-15 08:33N 40°38' W 074°08'0 0.0
2014-Dec-15 07:32N 40°38' W 074°08'0 0.0
2014-Dec-15 06:33N 40°38' W 074°08'0 0.0
2014-Dec-15 05:33N 40°38' W 074°08'0 0.0
2014-Dec-15 04:33N 40°38' W 074°08'0 0.0
2014-Dec-15 03:33N 40°38' W 074°08'0 0.0
2014-Dec-15 02:33N 40°38' W 074°08'0 0.0
2014-Dec-15 01:34N 40°38' W 074°08'0 0.0
2014-Dec-15 00:33N 40°38' W 074°08'0 0.0
2014-Dec-14 23:33N 40°38' W 074°08'0 0.0
2014-Dec-14 22:33N 40°38' W 074°08'0 0.0
2014-Dec-14 21:33N 40°38' W 074°08'0 0.0
2014-Dec-14 20:33N 40°38' W 074°08'2 1.7
2014-Dec-14 19:33N 40°39' W 074°10'2 1.7
2014-Dec-14 18:33N 40°38' W 074°08'0 0.4
2014-Dec-14 17:33N 40°39' W 074°07'4 3.7
2014-Dec-14 16:33N 40°38' W 074°12'5 4.5
2014-Dec-14 15:33N 40°39' W 074°06'8 8.2
2014-Dec-14 14:33N 40°44' W 073°58'3 3.0
2014-Dec-14 13:33N 40°47' W 073°56'1010.0
2014-Dec-14 12:33N 40°39' W 074°04'3 2.6
2014-Dec-14 11:34N 40°38' W 074°08'0 0.0
2014-Dec-14 10:33N 40°38' W 074°08'0 0.0
2014-Dec-14 09:33N 40°38' W 074°08'0 0.0
2014-Dec-14 08:33N 40°38' W 074°08'0 0.0
2014-Dec-14 07:33N 40°38' W 074°08'0 0.0
2014-Dec-14 06:33N 40°38' W 074°08'0 0.0
2014-Dec-14 05:33N 40°38' W 074°08'0 0.0
2014-Dec-14 04:33N 40°38' W 074°08'0 0.0
2014-Dec-14 03:33N 40°38' W 074°08'0 0.0
2014-Dec-14 02:33N 40°38' W 074°08'0 0.0
2014-Dec-14 01:33N 40°38' W 074°08'2 2.0
2014-Dec-14 00:33N 40°39' W 074°05'1 1.3
2014-Dec-13 23:33N 40°39' W 074°04'3 3.1
2014-Dec-13 22:33N 40°38' W 074°08'0 0.0
2014-Dec-13 21:33N 40°38' W 074°08'0 0.0
2014-Dec-13 20:33N 40°38' W 074°08'0 0.0
2014-Dec-13 19:33N 40°38' W 074°08'0 0.0
2014-Dec-13 18:33N 40°38' W 074°08'1 1.0
2014-Dec-13 17:33N 40°39' W 074°07'0 0.0
2014-Dec-13 16:33N 40°39' W 074°07'1 0.3
2014-Dec-13 13:29N 40°38' W 074°08'0 0.0
2014-Dec-13 12:31N 40°38' W 074°08'1 1.1
2014-Dec-13 11:33N 40°39' W 074°09'1 0.6
2014-Dec-13 10:33N 40°39' W 074°09'1 0.8
2014-Dec-13 09:33N 40°38' W 074°08'0 0.0
2014-Dec-13 08:33N 40°38' W 074°08'0 0.0
2014-Dec-13 07:33N 40°38' W 074°08'0 0.0
2014-Dec-13 06:33N 40°38' W 074°08'0 0.0
2014-Dec-13 05:33N 40°38' W 074°08'0 0.0
2014-Dec-13 04:33N 40°38' W 074°08'2 2.0
2014-Dec-13 03:33N 40°40' W 074°08'2 1.8
2014-Dec-13 02:33N 40°39' W 074°08'1 0.9
2014-Dec-13 01:33N 40°39' W 074°07'0 0.0
2014-Dec-13 00:33N 40°39' W 074°07'1 1.3
2014-Dec-12 23:33N 40°39' W 074°08'3 3.0
2014-Dec-12 22:33N 40°42' W 074°08'2 2.3
2014-Dec-12 21:33N 40°39' W 074°09'2 2.0
2014-Dec-12 20:34N 40°41' W 074°08'3 2.8
2014-Dec-12 19:34N 40°38' W 074°08'0 0.0
2014-Dec-12 18:34N 40°38' W 074°08'2 2.2
2014-Dec-12 17:33N 40°41' W 074°09'2 1.8
2014-Dec-12 16:33N 40°39' W 074°09'1 0.3
2014-Dec-12 13:33N 40°38' W 074°08'2 1.6
2014-Dec-12 12:33N 40°40' W 074°08'1 0.8
2014-Dec-12 11:33N 40°41' W 074°09'3 2.7
2014-Dec-12 10:30N 40°39' W 074°11'2 2.7
2014-Dec-12 09:33N 40°39' W 074°08'0 0.2
2014-Dec-12 08:34N 40°38' W 074°08'0 0.0
2014-Dec-12 07:33N 40°38' W 074°08'0 0.0
2014-Dec-12 06:34N 40°38' W 074°08'0 0.0
2014-Dec-12 05:33N 40°38' W 074°08'7 3.5
2014-Dec-12 03:32N 40°33' W 074°14'3 3.4
2014-Dec-12 02:33N 40°36' W 074°12'4 4.0
2014-Dec-12 01:34N 40°38' W 074°08'0 0.0
2014-Dec-12 00:34N 40°38' W 074°08'0 0.0
2014-Dec-11 23:34N 40°38' W 074°08'2 2.2
2014-Dec-11 22:34N 40°41' W 074°09'0 0.2
2014-Dec-11 21:33N 40°40' W 074°08'2 2.1
2014-Dec-11 20:33N 40°38' W 074°08'0 0.0
2014-Dec-11 19:31N 40°38' W 074°08'0 0.0
2014-Dec-11 18:32N 40°38' W 074°08'0 0.0
2014-Dec-11 17:33N 40°38' W 074°08'6 6.0
2014-Dec-11 16:34N 40°40' W 074°00'0 0.0
2014-Dec-11 15:34N 40°40' W 074°00'6 5.9
2014-Dec-11 14:33N 40°38' W 074°08'2 2.3
2014-Dec-11 13:33N 40°41' W 074°09'2 1.8
2014-Dec-11 12:33N 40°39' W 074°09'2 1.5
2014-Dec-11 11:33N 40°39' W 074°07'2 2.0
2014-Dec-11 10:33N 40°40' W 074°08'1 0.9
2014-Dec-11 09:33N 40°41' W 074°09'0 0.0
2014-Dec-11 08:33N 40°41' W 074°09'3 2.6
2014-Dec-11 07:33N 40°39' W 074°08'10 9.5
2014-Dec-11 06:33N 40°46' W 074°00'4 0.1
2014-Dec-09 15:33N 40°50' W 073°58'9 8.9
2014-Dec-09 14:33N 40°42' W 074°02'2 2.2
2014-Dec-09 13:33N 40°40' W 074°00'2 1.6
2014-Dec-09 12:33N 40°41' W 074°00'0 0.0
2014-Dec-09 11:33N 40°41' W 074°00'0 0.0
2014-Dec-09 10:33N 40°41' W 074°00'0 0.0
2014-Dec-09 09:33N 40°41' W 074°00'0 0.3
2014-Dec-09 08:33N 40°41' W 074°01'0 0.2
2014-Dec-09 07:33N 40°41' W 074°01'0 0.0
2014-Dec-09 06:33N 40°41' W 074°01'0 0.0
2014-Dec-09 05:33N 40°41' W 074°01'0 0.4
2014-Dec-09 04:33N 40°41' W 074°00'0 0.0
2014-Dec-09 03:33N 40°41' W 074°00'0 0.0
2014-Dec-09 02:33N 40°41' W 074°00'0 0.0
2014-Dec-09 01:33N 40°41' W 074°00'4 3.7
2014-Dec-09 00:33N 40°40' W 074°05'2 1.6
2014-Dec-08 23:33N 40°39' W 074°03'3 3.2
2014-Dec-08 22:29N 40°38' W 074°08'0 0.0
2014-Dec-08 21:33N 40°38' W 074°08'0 0.0
2014-Dec-08 20:28N 40°38' W 074°08'0 0.0
2014-Dec-08 19:32N 40°38' W 074°08'0 0.0
2014-Dec-08 18:30N 40°38' W 074°08'0 0.0
2014-Dec-08 17:28N 40°38' W 074°08'0 0.0
2014-Dec-08 16:33N 40°38' W 074°08'0 0.0
2014-Dec-08 15:33N 40°38' W 074°08'0 0.0
2014-Dec-08 14:27N 40°38' W 074°08'0 0.0
2014-Dec-08 13:30N 40°38' W 074°08'0 0.0
2014-Dec-08 12:32N 40°38' W 074°08'0 0.0
2014-Dec-08 11:33N 40°39' W 074°08'3 1.7
2014-Dec-08 09:33N 40°38' W 074°12'0 0.1
2014-Dec-08 08:33N 40°38' W 074°12'5 4.8
2014-Dec-08 07:33N 40°39' W 074°06'3 3.4
2014-Dec-08 06:33N 40°41' W 074°09'0 0.0
2014-Dec-08 05:31N 40°41' W 074°09'3 2.9
2014-Dec-08 04:34N 40°39' W 074°08'0 0.1
2014-Dec-08 03:33N 40°38' W 074°08'0 0.0
2014-Dec-08 02:33N 40°38' W 074°08'0 0.0
2014-Dec-08 01:33N 40°38' W 074°08'1 1.3
2014-Dec-08 00:33N 40°40' W 074°09'2 2.2
2014-Dec-07 23:33N 40°42' W 074°08'3 3.3
2014-Dec-07 22:33N 40°38' W 074°08'0 0.0
2014-Dec-07 21:33N 40°38' W 074°08'0 0.0
2014-Dec-07 20:33N 40°38' W 074°08'0 0.0
2014-Dec-07 19:33N 40°38' W 074°08'0 0.0
2014-Dec-07 18:33N 40°38' W 074°08'0 0.0
2014-Dec-07 17:33N 40°38' W 074°08'0 0.0
2014-Dec-07 16:33N 40°38' W 074°08'0 0.0
2014-Dec-07 15:33N 40°38' W 074°08'0 0.0
2014-Dec-07 14:34N 40°38' W 074°08'6 6.0
2014-Dec-07 13:33N 40°40' W 074°00'2 2.0
2014-Dec-07 12:33N 40°39' W 074°03'0 0.3
2014-Dec-07 11:33N 40°39' W 074°03'0 0.0
2014-Dec-07 10:33N 40°39' W 074°03'0 0.0
2014-Dec-07 09:33N 40°39' W 074°03'0 0.0
2014-Dec-07 08:33N 40°39' W 074°03'0 0.0
2014-Dec-07 07:33N 40°39' W 074°03'0 0.0
2014-Dec-07 06:33N 40°39' W 074°03'0 0.0
2014-Dec-07 05:33N 40°39' W 074°03'0 0.0
2014-Dec-07 04:33N 40°39' W 074°03'0 0.0
2014-Dec-07 03:33N 40°39' W 074°03'0 0.0
2014-Dec-07 02:33N 40°39' W 074°03'0 0.0
2014-Dec-07 01:33N 40°39' W 074°03'0 0.1
2014-Dec-07 00:33N 40°39' W 074°03'0 0.0
2014-Dec-06 23:33N 40°39' W 074°03'0 0.1
2014-Dec-06 22:33N 40°39' W 074°03'5 5.1
2014-Dec-06 21:33N 40°43' W 073°58'8 7.6
2014-Dec-06 20:33N 40°48' W 073°51'12 9.0
2014-Dec-06 19:14N 40°55' W 073°38'710.8
2014-Dec-06 18:33N 40°58' W 073°29'1111.0
2014-Dec-06 17:33N 41°03' W 073°16'1111.2
2014-Dec-06 16:33N 41°07' W 073°03'10 9.6
2014-Dec-06 15:33N 41°15' W 072°55'3 2.9
2014-Dec-06 14:33N 41°18' W 072°54'0 0.0
2014-Dec-06 13:25N 41°18' W 072°54'0 0.0
2014-Dec-06 12:33N 41°18' W 072°54'0 0.0
2014-Dec-06 11:33N 41°18' W 072°54'0 0.0
2014-Dec-06 07:33N 41°18' W 072°54'0 0.0
2014-Dec-06 06:33N 41°18' W 072°54'0 0.0
2014-Dec-06 04:26N 41°18' W 072°54'0 0.0
2014-Dec-06 01:33N 41°18' W 072°54'2 2.2
2014-Dec-06 00:33N 41°16' W 072°55'5 4.7
2014-Dec-05 23:33N 41°11' W 072°52'  
Track history (hours):
 
Tides and Currents Weather Stations Pressure Air Temp Water Temp Dewpoint Dewpoint Depression Visibility Wind Speed Wind Dir Waves Ship Positions

Doris Moran

Owner: MORAN TOWING CORPORATION, New Canaan, CT. More information available from US FCC via Universal Licensing System and Coast Guard Vessel Documentation Center.

Last reported at 2014-Dec-15 23:33 UTC. Time now 2014-Dec-19 18:15 UTC.
Position N 40°46' W 074°01'.

Length 36 m; draft 5.3 m.

Type: Other ship. MMSI: 366939790.

Date/timePositionNaut miles runAvg speedWind from/ knotsBaromVisibWave heightAir tempDewpointWater temp
2014-Dec-15 23:33N 40°46' W 074°01'9 8.9
2014-Dec-15 22:33N 40°38' W 074°08'0 0.0
2014-Dec-15 21:33N 40°38' W 074°08'3 3.4
2014-Dec-15 20:33N 40°39' W 074°03'1 0.9
2014-Dec-15 19:33N 40°40' W 074°03'0 0.1
2014-Dec-15 18:33N 40°40' W 074°02'0 0.1
2014-Dec-15 17:33N 40°40' W 074°03'0 0.0
2014-Dec-15 16:33N 40°40' W 074°03'0 0.0
2014-Dec-15 15:33N 40°40' W 074°03'0 0.0
2014-Dec-15 14:33N 40°40' W 074°03'5 5.1
2014-Dec-15 13:32N 40°41' W 074°09'1 1.1
2014-Dec-15 12:33N 40°40' W 074°08'2 2.1
2014-Dec-15 11:34N 40°39' W 074°07'1 0.6
2014-Dec-15 10:33N 40°38' W 074°08'0 0.0
2014-Dec-15 09:33N 40°38' W 074°08'0 0.0
2014-Dec-15 08:33N 40°38' W 074°08'0 0.0
2014-Dec-15 07:32N 40°38' W 074°08'0 0.0
2014-Dec-15 06:33N 40°38' W 074°08'0 0.0
2014-Dec-15 05:33N 40°38' W 074°08'0 0.0
2014-Dec-15 04:33N 40°38' W 074°08'0 0.0
2014-Dec-15 03:33N 40°38' W 074°08'0 0.0
2014-Dec-15 02:33N 40°38' W 074°08'0 0.0
2014-Dec-15 01:34N 40°38' W 074°08'0 0.0
2014-Dec-15 00:33N 40°38' W 074°08'0 0.0
2014-Dec-14 23:33N 40°38' W 074°08'0 0.0
2014-Dec-14 22:33N 40°38' W 074°08'0 0.0
2014-Dec-14 21:33N 40°38' W 074°08'0 0.0
2014-Dec-14 20:33N 40°38' W 074°08'2 1.7
2014-Dec-14 19:33N 40°39' W 074°10'2 1.7
2014-Dec-14 18:33N 40°38' W 074°08'0 0.4
2014-Dec-14 17:33N 40°39' W 074°07'4 3.7
2014-Dec-14 16:33N 40°38' W 074°12'5 4.5
2014-Dec-14 15:33N 40°39' W 074°06'8 8.2
2014-Dec-14 14:33N 40°44' W 073°58'3 3.0
2014-Dec-14 13:33N 40°47' W 073°56'1010.0
2014-Dec-14 12:33N 40°39' W 074°04'3 2.6
2014-Dec-14 11:34N 40°38' W 074°08'0 0.0
2014-Dec-14 10:33N 40°38' W 074°08'0 0.0
2014-Dec-14 09:33N 40°38' W 074°08'0 0.0
2014-Dec-14 08:33N 40°38' W 074°08'0 0.0
2014-Dec-14 07:33N 40°38' W 074°08'0 0.0
2014-Dec-14 06:33N 40°38' W 074°08'0 0.0
2014-Dec-14 05:33N 40°38' W 074°08'0 0.0
2014-Dec-14 04:33N 40°38' W 074°08'0 0.0
2014-Dec-14 03:33N 40°38' W 074°08'0 0.0
2014-Dec-14 02:33N 40°38' W 074°08'0 0.0
2014-Dec-14 01:33N 40°38' W 074°08'2 2.0
2014-Dec-14 00:33N 40°39' W 074°05'1 1.3
2014-Dec-13 23:33N 40°39' W 074°04'3 3.1
2014-Dec-13 22:33N 40°38' W 074°08'0 0.0
2014-Dec-13 21:33N 40°38' W 074°08'0 0.0
2014-Dec-13 20:33N 40°38' W 074°08'0 0.0
2014-Dec-13 19:33N 40°38' W 074°08'0 0.0
2014-Dec-13 18:33N 40°38' W 074°08'1 1.0
2014-Dec-13 17:33N 40°39' W 074°07'0 0.0
2014-Dec-13 16:33N 40°39' W 074°07'1 0.3
2014-Dec-13 13:29N 40°38' W 074°08'0 0.0
2014-Dec-13 12:31N 40°38' W 074°08'1 1.1
2014-Dec-13 11:33N 40°39' W 074°09'1 0.6
2014-Dec-13 10:33N 40°39' W 074°09'1 0.8
2014-Dec-13 09:33N 40°38' W 074°08'0 0.0
2014-Dec-13 08:33N 40°38' W 074°08'0 0.0
2014-Dec-13 07:33N 40°38' W 074°08'0 0.0
2014-Dec-13 06:33N 40°38' W 074°08'0 0.0
2014-Dec-13 05:33N 40°38' W 074°08'0 0.0
2014-Dec-13 04:33N 40°38' W 074°08'2 2.0
2014-Dec-13 03:33N 40°40' W 074°08'2 1.8
2014-Dec-13 02:33N 40°39' W 074°08'1 0.9
2014-Dec-13 01:33N 40°39' W 074°07'0 0.0
2014-Dec-13 00:33N 40°39' W 074°07'1 1.3
2014-Dec-12 23:33N 40°39' W 074°08'3 3.0
2014-Dec-12 22:33N 40°42' W 074°08'2 2.3
2014-Dec-12 21:33N 40°39' W 074°09'2 2.0
2014-Dec-12 20:34N 40°41' W 074°08'3 2.8
2014-Dec-12 19:34N 40°38' W 074°08'0 0.0
2014-Dec-12 18:34N 40°38' W 074°08'2 2.2
2014-Dec-12 17:33N 40°41' W 074°09'2 1.8
2014-Dec-12 16:33N 40°39' W 074°09'1 0.3
2014-Dec-12 13:33N 40°38' W 074°08'2 1.6
2014-Dec-12 12:33N 40°40' W 074°08'1 0.8
2014-Dec-12 11:33N 40°41' W 074°09'3 2.7
2014-Dec-12 10:30N 40°39' W 074°11'2 2.7
2014-Dec-12 09:33N 40°39' W 074°08'0 0.2
2014-Dec-12 08:34N 40°38' W 074°08'0 0.0
2014-Dec-12 07:33N 40°38' W 074°08'0 0.0
2014-Dec-12 06:34N 40°38' W 074°08'0 0.0
2014-Dec-12 05:33N 40°38' W 074°08'7 3.5
2014-Dec-12 03:32N 40°33' W 074°14'3 3.4
2014-Dec-12 02:33N 40°36' W 074°12'4 4.0
2014-Dec-12 01:34N 40°38' W 074°08'0 0.0
2014-Dec-12 00:34N 40°38' W 074°08'0 0.0
2014-Dec-11 23:34N 40°38' W 074°08'2 2.2
2014-Dec-11 22:34N 40°41' W 074°09'0 0.2
2014-Dec-11 21:33N 40°40' W 074°08'2 2.1
2014-Dec-11 20:33N 40°38' W 074°08'0 0.0
2014-Dec-11 19:31N 40°38' W 074°08'0 0.0
2014-Dec-11 18:32N 40°38' W 074°08'0 0.0
2014-Dec-11 17:33N 40°38' W 074°08'6 6.0
2014-Dec-11 16:34N 40°40' W 074°00'0 0.0
2014-Dec-11 15:34N 40°40' W 074°00'6 5.9
2014-Dec-11 14:33N 40°38' W 074°08'2 2.3
2014-Dec-11 13:33N 40°41' W 074°09'2 1.8
2014-Dec-11 12:33N 40°39' W 074°09'2 1.5
2014-Dec-11 11:33N 40°39' W 074°07'2 2.0
2014-Dec-11 10:33N 40°40' W 074°08'1 0.9
2014-Dec-11 09:33N 40°41' W 074°09'0 0.0
2014-Dec-11 08:33N 40°41' W 074°09'3 2.6
2014-Dec-11 07:33N 40°39' W 074°08'10 9.5
2014-Dec-11 06:33N 40°46' W 074°00'4 0.1
2014-Dec-09 15:33N 40°50' W 073°58'9 8.9
2014-Dec-09 14:33N 40°42' W 074°02'2 2.2
2014-Dec-09 13:33N 40°40' W 074°00'2 1.6
2014-Dec-09 12:33N 40°41' W 074°00'0 0.0
2014-Dec-09 11:33N 40°41' W 074°00'0 0.0
2014-Dec-09 10:33N 40°41' W 074°00'0 0.0
2014-Dec-09 09:33N 40°41' W 074°00'0 0.3
2014-Dec-09 08:33N 40°41' W 074°01'0 0.2
2014-Dec-09 07:33N 40°41' W 074°01'0 0.0
2014-Dec-09 06:33N 40°41' W 074°01'0 0.0
2014-Dec-09 05:33N 40°41' W 074°01'0 0.4
2014-Dec-09 04:33N 40°41' W 074°00'0 0.0
2014-Dec-09 03:33N 40°41' W 074°00'0 0.0
2014-Dec-09 02:33N 40°41' W 074°00'0 0.0
2014-Dec-09 01:33N 40°41' W 074°00'4 3.7
2014-Dec-09 00:33N 40°40' W 074°05'2 1.6
2014-Dec-08 23:33N 40°39' W 074°03'3 3.2
2014-Dec-08 22:29N 40°38' W 074°08'0 0.0
2014-Dec-08 21:33N 40°38' W 074°08'0 0.0
2014-Dec-08 20:28N 40°38' W 074°08'0 0.0
2014-Dec-08 19:32N 40°38' W 074°08'0 0.0
2014-Dec-08 18:30N 40°38' W 074°08'0 0.0
2014-Dec-08 17:28N 40°38' W 074°08'0 0.0
2014-Dec-08 16:33N 40°38' W 074°08'0 0.0
2014-Dec-08 15:33N 40°38' W 074°08'0 0.0
2014-Dec-08 14:27N 40°38' W 074°08'0 0.0
2014-Dec-08 13:30N 40°38' W 074°08'0 0.0
2014-Dec-08 12:32N 40°38' W 074°08'0 0.0
2014-Dec-08 11:33N 40°39' W 074°08'3 1.7
2014-Dec-08 09:33N 40°38' W 074°12'0 0.1
2014-Dec-08 08:33N 40°38' W 074°12'5 4.8
2014-Dec-08 07:33N 40°39' W 074°06'3 3.4
2014-Dec-08 06:33N 40°41' W 074°09'0 0.0
2014-Dec-08 05:31N 40°41' W 074°09'3 2.9
2014-Dec-08 04:34N 40°39' W 074°08'0 0.1
2014-Dec-08 03:33N 40°38' W 074°08'0 0.0
2014-Dec-08 02:33N 40°38' W 074°08'0 0.0
2014-Dec-08 01:33N 40°38' W 074°08'1 1.3
2014-Dec-08 00:33N 40°40' W 074°09'2 2.2
2014-Dec-07 23:33N 40°42' W 074°08'3 3.3
2014-Dec-07 22:33N 40°38' W 074°08'0 0.0
2014-Dec-07 21:33N 40°38' W 074°08'0 0.0
2014-Dec-07 20:33N 40°38' W 074°08'0 0.0
2014-Dec-07 19:33N 40°38' W 074°08'0 0.0
2014-Dec-07 18:33N 40°38' W 074°08'0 0.0
2014-Dec-07 17:33N 40°38' W 074°08'0 0.0
2014-Dec-07 16:33N 40°38' W 074°08'0 0.0
2014-Dec-07 15:33N 40°38' W 074°08'0 0.0
2014-Dec-07 14:34N 40°38' W 074°08'6 6.0
2014-Dec-07 13:33N 40°40' W 074°00'2 2.0
2014-Dec-07 12:33N 40°39' W 074°03'0 0.3
2014-Dec-07 11:33N 40°39' W 074°03'0 0.0
2014-Dec-07 10:33N 40°39' W 074°03'0 0.0
2014-Dec-07 09:33N 40°39' W 074°03'0 0.0
2014-Dec-07 08:33N 40°39' W 074°03'0 0.0
2014-Dec-07 07:33N 40°39' W 074°03'0 0.0
2014-Dec-07 06:33N 40°39' W 074°03'0 0.0
2014-Dec-07 05:33N 40°39' W 074°03'0 0.0
2014-Dec-07 04:33N 40°39' W 074°03'0 0.0
2014-Dec-07 03:33N 40°39' W 074°03'0 0.0
2014-Dec-07 02:33N 40°39' W 074°03'0 0.0
2014-Dec-07 01:33N 40°39' W 074°03'0 0.1
2014-Dec-07 00:33N 40°39' W 074°03'0 0.0
2014-Dec-06 23:33N 40°39' W 074°03'0 0.1
2014-Dec-06 22:33N 40°39' W 074°03'5 5.1
2014-Dec-06 21:33N 40°43' W 073°58'8 7.6
2014-Dec-06 20:33N 40°48' W 073°51'12 9.0
2014-Dec-06 19:14N 40°55' W 073°38'710.8
2014-Dec-06 18:33N 40°58' W 073°29'1111.0
2014-Dec-06 17:33N 41°03' W 073°16'1111.2
2014-Dec-06 16:33N 41°07' W 073°03'10 9.6
2014-Dec-06 15:33N 41°15' W 072°55'3 2.9
2014-Dec-06 14:33N 41°18' W 072°54'0 0.0
2014-Dec-06 13:25N 41°18' W 072°54'0 0.0
2014-Dec-06 12:33N 41°18' W 072°54'0 0.0
2014-Dec-06 11:33N 41°18' W 072°54'0 0.0
2014-Dec-06 07:33N 41°18' W 072°54'0 0.0
2014-Dec-06 06:33N 41°18' W 072°54'0 0.0
2014-Dec-06 04:26N 41°18' W 072°54'0 0.0
2014-Dec-06 01:33N 41°18' W 072°54'2 2.2
2014-Dec-06 00:33N 41°16' W 072°55'5 4.7
2014-Dec-05 23:33N 41°11' W 072°52'  

Dump ship's entire track history